sensor_id;sensor_type;location;lat;lon;timestamp;P1;durP1;ratioP1;P2;durP2;ratioP2
1977;SDS011;989;53.016;8.346;2022-08-19T00:00:35;27.97;;;11.93;;
1977;SDS011;989;53.016;8.346;2022-08-19T00:03:05;27.80;;;12.53;;
1977;SDS011;989;53.016;8.346;2022-08-19T00:05:32;16.27;;;9.70;;
1977;SDS011;989;53.016;8.346;2022-08-19T00:07:59;16.90;;;10.23;;
1977;SDS011;989;53.016;8.346;2022-08-19T00:10:25;19.00;;;10.73;;
1977;SDS011;989;53.016;8.346;2022-08-19T00:12:51;34.33;;;10.53;;
1977;SDS011;989;53.016;8.346;2022-08-19T00:15:18;17.10;;;9.60;;
1977;SDS011;989;53.016;8.346;2022-08-19T00:17:46;21.93;;;11.33;;
1977;SDS011;989;53.016;8.346;2022-08-19T00:20:13;28.23;;;11.10;;
1977;SDS011;989;53.016;8.346;2022-08-19T00:22:43;19.90;;;9.20;;
1977;SDS011;989;53.016;8.346;2022-08-19T00:25:10;20.17;;;10.57;;
1977;SDS011;989;53.016;8.346;2022-08-19T00:27:36;18.47;;;9.50;;
1977;SDS011;989;53.016;8.346;2022-08-19T00:30:03;18.20;;;10.93;;
1977;SDS011;989;53.016;8.346;2022-08-19T00:32:31;32.27;;;11.27;;
1977;SDS011;989;53.016;8.346;2022-08-19T00:34:59;33.93;;;10.27;;
1977;SDS011;989;53.016;8.346;2022-08-19T00:37:26;76.17;;;13.97;;
1977;SDS011;989;53.016;8.346;2022-08-19T00:39:52;31.00;;;14.20;;
1977;SDS011;989;53.016;8.346;2022-08-19T00:42:19;29.50;;;14.20;;
1977;SDS011;989;53.016;8.346;2022-08-19T00:44:46;26.80;;;13.60;;
1977;SDS011;989;53.016;8.346;2022-08-19T00:47:12;26.70;;;11.47;;
1977;SDS011;989;53.016;8.346;2022-08-19T00:49:48;21.83;;;10.40;;
1977;SDS011;989;53.016;8.346;2022-08-19T00:52:24;20.37;;;11.33;;
1977;SDS011;989;53.016;8.346;2022-08-19T00:54:59;23.07;;;11.17;;
1977;SDS011;989;53.016;8.346;2022-08-19T00:57:28;26.77;;;13.50;;
1977;SDS011;989;53.016;8.346;2022-08-19T01:00:00;134.17;;;12.60;;
1977;SDS011;989;53.016;8.346;2022-08-19T01:02:31;99.23;;;11.27;;
1977;SDS011;989;53.016;8.346;2022-08-19T01:04:57;60.83;;;13.80;;
1977;SDS011;989;53.016;8.346;2022-08-19T01:07:27;37.83;;;11.73;;
1977;SDS011;989;53.016;8.346;2022-08-19T01:09:53;51.93;;;13.77;;
1977;SDS011;989;53.016;8.346;2022-08-19T01:12:19;78.60;;;14.43;;
1977;SDS011;989;53.016;8.346;2022-08-19T01:14:45;37.27;;;15.43;;
1977;SDS011;989;53.016;8.346;2022-08-19T01:17:11;103.07;;;16.13;;
1977;SDS011;989;53.016;8.346;2022-08-19T01:19:39;105.20;;;14.43;;
1977;SDS011;989;53.016;8.346;2022-08-19T01:22:18;59.30;;;13.47;;
1977;SDS011;989;53.016;8.346;2022-08-19T01:24:47;54.77;;;14.07;;
1977;SDS011;989;53.016;8.346;2022-08-19T01:27:14;65.20;;;12.27;;
1977;SDS011;989;53.016;8.346;2022-08-19T01:29:40;124.07;;;15.23;;
1977;SDS011;989;53.016;8.346;2022-08-19T01:32:09;146.53;;;11.70;;
1977;SDS011;989;53.016;8.346;2022-08-19T01:34:39;60.77;;;13.00;;
1977;SDS011;989;53.016;8.346;2022-08-19T01:37:09;90.77;;;11.70;;
1977;SDS011;989;53.016;8.346;2022-08-19T01:39:37;85.57;;;12.33;;
1977;SDS011;989;53.016;8.346;2022-08-19T01:42:05;73.43;;;16.40;;
1977;SDS011;989;53.016;8.346;2022-08-19T01:44:36;29.27;;;13.00;;
1977;SDS011;989;53.016;8.346;2022-08-19T01:47:05;40.03;;;11.60;;
1977;SDS011;989;53.016;8.346;2022-08-19T01:49:32;52.80;;;11.93;;
1977;SDS011;989;53.016;8.346;2022-08-19T01:51:59;33.53;;;12.70;;
1977;SDS011;989;53.016;8.346;2022-08-19T01:54:25;32.73;;;11.13;;
1977;SDS011;989;53.016;8.346;2022-08-19T01:56:51;31.53;;;13.20;;
1977;SDS011;989;53.016;8.346;2022-08-19T01:59:23;47.17;;;12.47;;
1977;SDS011;989;53.016;8.346;2022-08-19T02:01:49;24.77;;;11.23;;
1977;SDS011;989;53.016;8.346;2022-08-19T02:04:15;75.33;;;12.63;;
1977;SDS011;989;53.016;8.346;2022-08-19T02:06:40;45.77;;;12.00;;
1977;SDS011;989;53.016;8.346;2022-08-19T02:09:06;230.63;;;15.43;;
1977;SDS011;989;53.016;8.346;2022-08-19T02:11:34;48.93;;;13.50;;
1977;SDS011;989;53.016;8.346;2022-08-19T02:14:03;56.67;;;13.70;;
1977;SDS011;989;53.016;8.346;2022-08-19T02:16:31;30.80;;;12.00;;
1977;SDS011;989;53.016;8.346;2022-08-19T02:18:58;49.20;;;12.93;;
1977;SDS011;989;53.016;8.346;2022-08-19T02:21:26;43.03;;;11.50;;
1977;SDS011;989;53.016;8.346;2022-08-19T02:23:53;126.83;;;13.80;;
1977;SDS011;989;53.016;8.346;2022-08-19T02:26:20;31.73;;;12.60;;
1977;SDS011;989;53.016;8.346;2022-08-19T02:28:46;53.60;;;12.07;;
1977;SDS011;989;53.016;8.346;2022-08-19T02:31:14;46.50;;;10.90;;
1977;SDS011;989;53.016;8.346;2022-08-19T02:33:44;111.97;;;13.37;;
1977;SDS011;989;53.016;8.346;2022-08-19T02:36:11;84.10;;;13.50;;
1977;SDS011;989;53.016;8.346;2022-08-19T02:38:38;115.17;;;13.10;;
1977;SDS011;989;53.016;8.346;2022-08-19T02:41:06;51.87;;;11.20;;
1977;SDS011;989;53.016;8.346;2022-08-19T02:43:37;140.37;;;14.27;;
1977;SDS011;989;53.016;8.346;2022-08-19T02:46:38;79.77;;;13.03;;
1977;SDS011;989;53.016;8.346;2022-08-19T02:48:59;81.03;;;11.67;;
1977;SDS011;989;53.016;8.346;2022-08-19T02:51:37;63.87;;;12.00;;
1977;SDS011;989;53.016;8.346;2022-08-19T02:54:06;65.00;;;11.30;;
1977;SDS011;989;53.016;8.346;2022-08-19T02:56:37;46.37;;;11.10;;
1977;SDS011;989;53.016;8.346;2022-08-19T02:59:05;46.80;;;12.37;;
1977;SDS011;989;53.016;8.346;2022-08-19T03:01:35;30.90;;;10.57;;
1977;SDS011;989;53.016;8.346;2022-08-19T03:04:03;23.73;;;10.97;;
1977;SDS011;989;53.016;8.346;2022-08-19T03:06:35;58.07;;;11.37;;
1977;SDS011;989;53.016;8.346;2022-08-19T03:09:04;21.57;;;9.43;;
1977;SDS011;989;53.016;8.346;2022-08-19T03:11:30;35.30;;;9.87;;
1977;SDS011;989;53.016;8.346;2022-08-19T03:13:58;46.13;;;9.60;;
1977;SDS011;989;53.016;8.346;2022-08-19T03:16:26;55.80;;;9.30;;
1977;SDS011;989;53.016;8.346;2022-08-19T03:18:55;40.10;;;12.67;;
1977;SDS011;989;53.016;8.346;2022-08-19T03:21:26;67.10;;;10.23;;
1977;SDS011;989;53.016;8.346;2022-08-19T03:23:54;45.40;;;13.17;;
1977;SDS011;989;53.016;8.346;2022-08-19T03:26:22;27.20;;;7.87;;
1977;SDS011;989;53.016;8.346;2022-08-19T03:28:48;59.97;;;10.90;;
1977;SDS011;989;53.016;8.346;2022-08-19T03:31:16;52.73;;;9.07;;
1977;SDS011;989;53.016;8.346;2022-08-19T03:33:46;96.63;;;10.13;;
1977;SDS011;989;53.016;8.346;2022-08-19T03:36:16;38.33;;;9.17;;
1977;SDS011;989;53.016;8.346;2022-08-19T03:38:48;98.13;;;12.87;;
1977;SDS011;989;53.016;8.346;2022-08-19T03:41:21;77.00;;;11.97;;
1977;SDS011;989;53.016;8.346;2022-08-19T03:43:49;81.57;;;10.33;;
1977;SDS011;989;53.016;8.346;2022-08-19T03:46:19;74.60;;;9.83;;
1977;SDS011;989;53.016;8.346;2022-08-19T03:48:52;48.50;;;11.20;;
1977;SDS011;989;53.016;8.346;2022-08-19T03:51:20;28.53;;;8.80;;
1977;SDS011;989;53.016;8.346;2022-08-19T03:53:56;23.57;;;9.63;;
1977;SDS011;989;53.016;8.346;2022-08-19T03:56:23;40.63;;;10.40;;
1977;SDS011;989;53.016;8.346;2022-08-19T03:58:53;70.00;;;11.63;;
1977;SDS011;989;53.016;8.346;2022-08-19T04:01:21;45.70;;;10.03;;
1977;SDS011;989;53.016;8.346;2022-08-19T04:03:51;40.30;;;9.87;;
1977;SDS011;989;53.016;8.346;2022-08-19T04:06:22;71.03;;;11.10;;
1977;SDS011;989;53.016;8.346;2022-08-19T04:09:00;62.50;;;13.13;;
1977;SDS011;989;53.016;8.346;2022-08-19T04:11:31;95.50;;;11.87;;
1977;SDS011;989;53.016;8.346;2022-08-19T04:14:12;122.53;;;11.50;;
1977;SDS011;989;53.016;8.346;2022-08-19T04:16:42;78.90;;;12.03;;
1977;SDS011;989;53.016;8.346;2022-08-19T04:19:11;104.40;;;12.37;;
1977;SDS011;989;53.016;8.346;2022-08-19T04:21:38;52.67;;;12.60;;
1977;SDS011;989;53.016;8.346;2022-08-19T04:24:05;59.10;;;10.87;;
1977;SDS011;989;53.016;8.346;2022-08-19T04:26:32;142.90;;;13.00;;
1977;SDS011;989;53.016;8.346;2022-08-19T04:29:04;85.60;;;11.33;;
1977;SDS011;989;53.016;8.346;2022-08-19T04:31:33;41.67;;;11.87;;
1977;SDS011;989;53.016;8.346;2022-08-19T04:34:01;47.83;;;9.80;;
1977;SDS011;989;53.016;8.346;2022-08-19T04:36:32;39.43;;;12.03;;
1977;SDS011;989;53.016;8.346;2022-08-19T04:39:05;61.43;;;13.30;;
1977;SDS011;989;53.016;8.346;2022-08-19T04:41:36;37.77;;;10.03;;
1977;SDS011;989;53.016;8.346;2022-08-19T04:44:21;68.47;;;10.87;;
1977;SDS011;989;53.016;8.346;2022-08-19T04:46:47;44.87;;;12.53;;
1977;SDS011;989;53.016;8.346;2022-08-19T04:49:15;38.70;;;11.63;;
1977;SDS011;989;53.016;8.346;2022-08-19T04:51:47;29.93;;;11.50;;
1977;SDS011;989;53.016;8.346;2022-08-19T04:54:13;30.33;;;10.93;;
1977;SDS011;989;53.016;8.346;2022-08-19T04:56:41;27.73;;;11.07;;
1977;SDS011;989;53.016;8.346;2022-08-19T04:59:06;70.50;;;12.57;;
1977;SDS011;989;53.016;8.346;2022-08-19T05:01:33;50.23;;;11.60;;
1977;SDS011;989;53.016;8.346;2022-08-19T05:04:02;48.00;;;11.27;;
1977;SDS011;989;53.016;8.346;2022-08-19T05:06:30;35.97;;;11.20;;
1977;SDS011;989;53.016;8.346;2022-08-19T05:08:58;62.20;;;10.87;;
1977;SDS011;989;53.016;8.346;2022-08-19T05:11:34;42.30;;;9.40;;
1977;SDS011;989;53.016;8.346;2022-08-19T05:14:05;51.20;;;10.90;;
1977;SDS011;989;53.016;8.346;2022-08-19T05:16:32;48.33;;;11.13;;
1977;SDS011;989;53.016;8.346;2022-08-19T05:18:58;64.67;;;11.47;;
1977;SDS011;989;53.016;8.346;2022-08-19T05:21:43;84.07;;;12.50;;
1977;SDS011;989;53.016;8.346;2022-08-19T05:24:27;55.07;;;10.63;;
1977;SDS011;989;53.016;8.346;2022-08-19T05:26:54;84.73;;;10.80;;
1977;SDS011;989;53.016;8.346;2022-08-19T05:29:22;40.93;;;10.03;;
1977;SDS011;989;53.016;8.346;2022-08-19T05:31:51;43.03;;;9.40;;
1977;SDS011;989;53.016;8.346;2022-08-19T05:34:19;56.60;;;9.77;;
1977;SDS011;989;53.016;8.346;2022-08-19T05:36:47;23.50;;;11.07;;
1977;SDS011;989;53.016;8.346;2022-08-19T05:39:19;33.03;;;9.83;;
1977;SDS011;989;53.016;8.346;2022-08-19T05:41:46;31.83;;;9.77;;
1977;SDS011;989;53.016;8.346;2022-08-19T05:44:17;32.50;;;10.07;;
1977;SDS011;989;53.016;8.346;2022-08-19T05:46:45;51.83;;;11.40;;
1977;SDS011;989;53.016;8.346;2022-08-19T05:49:12;43.47;;;10.53;;
1977;SDS011;989;53.016;8.346;2022-08-19T05:51:40;18.60;;;9.60;;
1977;SDS011;989;53.016;8.346;2022-08-19T05:54:07;32.17;;;11.03;;
1977;SDS011;989;53.016;8.346;2022-08-19T05:56:33;26.23;;;9.50;;
1977;SDS011;989;53.016;8.346;2022-08-19T05:59:03;21.03;;;9.77;;
1977;SDS011;989;53.016;8.346;2022-08-19T06:01:34;23.43;;;10.80;;
1977;SDS011;989;53.016;8.346;2022-08-19T06:04:02;15.93;;;9.00;;
1977;SDS011;989;53.016;8.346;2022-08-19T06:06:28;18.53;;;9.83;;
1977;SDS011;989;53.016;8.346;2022-08-19T06:08:55;15.30;;;9.60;;
1977;SDS011;989;53.016;8.346;2022-08-19T06:11:21;16.50;;;9.47;;
1977;SDS011;989;53.016;8.346;2022-08-19T06:13:59;13.37;;;8.90;;
1977;SDS011;989;53.016;8.346;2022-08-19T06:16:29;16.10;;;9.17;;
1977;SDS011;989;53.016;8.346;2022-08-19T06:18:59;13.83;;;9.17;;
1977;SDS011;989;53.016;8.346;2022-08-19T06:21:27;13.30;;;9.80;;
1977;SDS011;989;53.016;8.346;2022-08-19T06:23:54;15.87;;;9.70;;
1977;SDS011;989;53.016;8.346;2022-08-19T06:26:21;16.43;;;9.83;;
1977;SDS011;989;53.016;8.346;2022-08-19T06:28:49;15.77;;;9.50;;
1977;SDS011;989;53.016;8.346;2022-08-19T06:31:16;20.40;;;10.93;;
1977;SDS011;989;53.016;8.346;2022-08-19T06:33:45;16.73;;;11.27;;
1977;SDS011;989;53.016;8.346;2022-08-19T06:36:22;21.17;;;11.70;;
1977;SDS011;989;53.016;8.346;2022-08-19T06:38:55;21.63;;;12.47;;
1977;SDS011;989;53.016;8.346;2022-08-19T06:41:22;15.30;;;10.57;;
1977;SDS011;989;53.016;8.346;2022-08-19T06:43:53;15.63;;;11.37;;
1977;SDS011;989;53.016;8.346;2022-08-19T06:46:20;17.87;;;11.00;;
1977;SDS011;989;53.016;8.346;2022-08-19T06:48:47;14.40;;;10.20;;
1977;SDS011;989;53.016;8.346;2022-08-19T06:51:16;13.13;;;9.47;;
1977;SDS011;989;53.016;8.346;2022-08-19T06:53:46;16.43;;;9.20;;
1977;SDS011;989;53.016;8.346;2022-08-19T06:56:17;17.00;;;9.60;;
1977;SDS011;989;53.016;8.346;2022-08-19T06:58:47;13.60;;;9.23;;
1977;SDS011;989;53.016;8.346;2022-08-19T07:01:16;15.30;;;9.37;;
1977;SDS011;989;53.016;8.346;2022-08-19T07:03:42;19.50;;;9.03;;
1977;SDS011;989;53.016;8.346;2022-08-19T07:06:09;13.10;;;7.63;;
1977;SDS011;989;53.016;8.346;2022-08-19T07:08:40;14.57;;;8.37;;
1977;SDS011;989;53.016;8.346;2022-08-19T07:11:08;13.10;;;7.80;;
1977;SDS011;989;53.016;8.346;2022-08-19T07:13:36;12.77;;;8.07;;
1977;SDS011;989;53.016;8.346;2022-08-19T07:16:03;10.50;;;7.40;;
1977;SDS011;989;53.016;8.346;2022-08-19T07:18:33;9.77;;;7.73;;
1977;SDS011;989;53.016;8.346;2022-08-19T07:23:30;9.10;;;5.57;;
1977;SDS011;989;53.016;8.346;2022-08-19T07:25:57;10.00;;;5.40;;
1977;SDS011;989;53.016;8.346;2022-08-19T07:28:22;5.90;;;5.27;;
1977;SDS011;989;53.016;8.346;2022-08-19T07:30:48;11.23;;;5.90;;
1977;SDS011;989;53.016;8.346;2022-08-19T07:33:15;6.37;;;4.70;;
1977;SDS011;989;53.016;8.346;2022-08-19T07:35:43;7.00;;;4.20;;
1977;SDS011;989;53.016;8.346;2022-08-19T07:38:08;7.57;;;5.00;;
1977;SDS011;989;53.016;8.346;2022-08-19T07:40:35;7.70;;;4.80;;
1977;SDS011;989;53.016;8.346;2022-08-19T07:43:01;6.57;;;4.70;;
1977;SDS011;989;53.016;8.346;2022-08-19T07:45:27;9.10;;;5.17;;
1977;SDS011;989;53.016;8.346;2022-08-19T07:47:53;8.47;;;5.17;;
1977;SDS011;989;53.016;8.346;2022-08-19T07:50:19;5.80;;;4.50;;
1977;SDS011;989;53.016;8.346;2022-08-19T07:52:46;8.27;;;4.70;;
1977;SDS011;989;53.016;8.346;2022-08-19T07:55:14;8.90;;;5.27;;
1977;SDS011;989;53.016;8.346;2022-08-19T07:57:43;5.50;;;4.43;;
1977;SDS011;989;53.016;8.346;2022-08-19T08:00:09;14.70;;;5.67;;
1977;SDS011;989;53.016;8.346;2022-08-19T08:02:35;5.80;;;4.27;;
1977;SDS011;989;53.016;8.346;2022-08-19T08:05:01;6.20;;;4.10;;
1977;SDS011;989;53.016;8.346;2022-08-19T08:07:45;9.23;;;3.90;;
1977;SDS011;989;53.016;8.346;2022-08-19T08:10:29;8.73;;;4.70;;
1977;SDS011;989;53.016;8.346;2022-08-19T08:12:55;8.13;;;5.03;;
1977;SDS011;989;53.016;8.346;2022-08-19T08:15:21;5.00;;;3.97;;
1977;SDS011;989;53.016;8.346;2022-08-19T08:17:46;6.33;;;4.00;;
1977;SDS011;989;53.016;8.346;2022-08-19T08:20:13;7.00;;;4.40;;
1977;SDS011;989;53.016;8.346;2022-08-19T08:22:42;7.43;;;4.00;;
1977;SDS011;989;53.016;8.346;2022-08-19T08:25:29;10.37;;;4.07;;
1977;SDS011;989;53.016;8.346;2022-08-19T08:27:56;6.90;;;3.93;;
1977;SDS011;989;53.016;8.346;2022-08-19T08:30:24;7.13;;;4.60;;
1977;SDS011;989;53.016;8.346;2022-08-19T08:32:52;4.60;;;3.50;;
1977;SDS011;989;53.016;8.346;2022-08-19T08:35:19;5.10;;;3.90;;
1977;SDS011;989;53.016;8.346;2022-08-19T08:37:48;17.17;;;4.20;;
1977;SDS011;989;53.016;8.346;2022-08-19T08:40:18;8.43;;;3.53;;
1977;SDS011;989;53.016;8.346;2022-08-19T08:43:05;8.27;;;4.03;;
1977;SDS011;989;53.016;8.346;2022-08-19T08:46:11;5.30;;;3.43;;
1977;SDS011;989;53.016;8.346;2022-08-19T08:48:51;6.20;;;3.23;;
1977;SDS011;989;53.016;8.346;2022-08-19T08:51:24;5.03;;;3.33;;
1977;SDS011;989;53.016;8.346;2022-08-19T08:53:59;8.03;;;3.93;;
1977;SDS011;989;53.016;8.346;2022-08-19T08:56:27;3.70;;;3.00;;
1977;SDS011;989;53.016;8.346;2022-08-19T08:59:07;4.37;;;3.33;;
1977;SDS011;989;53.016;8.346;2022-08-19T09:01:48;4.23;;;3.20;;
1977;SDS011;989;53.016;8.346;2022-08-19T09:04:14;4.97;;;3.77;;
1977;SDS011;989;53.016;8.346;2022-08-19T09:06:44;4.60;;;3.43;;
1977;SDS011;989;53.016;8.346;2022-08-19T09:09:51;5.80;;;3.20;;
1977;SDS011;989;53.016;8.346;2022-08-19T09:15:15;5.67;;;3.40;;
1977;SDS011;989;53.016;8.346;2022-08-19T09:17:43;7.07;;;4.00;;
1977;SDS011;989;53.016;8.346;2022-08-19T09:22:36;4.67;;;3.10;;
1977;SDS011;989;53.016;8.346;2022-08-19T09:25:03;5.60;;;2.80;;
1977;SDS011;989;53.016;8.346;2022-08-19T09:27:33;3.33;;;2.70;;
1977;SDS011;989;53.016;8.346;2022-08-19T09:30:03;6.20;;;3.40;;
1977;SDS011;989;53.016;8.346;2022-08-19T09:32:30;6.03;;;3.23;;
1977;SDS011;989;53.016;8.346;2022-08-19T09:34:56;12.33;;;3.53;;
1977;SDS011;989;53.016;8.346;2022-08-19T09:37:23;4.33;;;3.53;;
1977;SDS011;989;53.016;8.346;2022-08-19T09:39:50;13.13;;;3.27;;
1977;SDS011;989;53.016;8.346;2022-08-19T09:42:16;8.17;;;3.43;;
1977;SDS011;989;53.016;8.346;2022-08-19T09:44:42;5.30;;;3.30;;
1977;SDS011;989;53.016;8.346;2022-08-19T09:47:09;3.37;;;2.70;;
1977;SDS011;989;53.016;8.346;2022-08-19T09:49:37;3.93;;;2.80;;
1977;SDS011;989;53.016;8.346;2022-08-19T09:52:04;4.07;;;2.83;;
1977;SDS011;989;53.016;8.346;2022-08-19T09:54:32;6.17;;;3.20;;
1977;SDS011;989;53.016;8.346;2022-08-19T09:56:58;8.90;;;3.50;;
1977;SDS011;989;53.016;8.346;2022-08-19T09:59:28;4.90;;;3.33;;
1977;SDS011;989;53.016;8.346;2022-08-19T10:01:54;9.80;;;4.10;;
1977;SDS011;989;53.016;8.346;2022-08-19T10:04:20;9.20;;;3.70;;
1977;SDS011;989;53.016;8.346;2022-08-19T10:06:46;3.17;;;2.87;;
1977;SDS011;989;53.016;8.346;2022-08-19T10:09:15;4.50;;;3.10;;
1977;SDS011;989;53.016;8.346;2022-08-19T10:11:43;6.40;;;3.73;;
1977;SDS011;989;53.016;8.346;2022-08-19T10:14:14;5.23;;;2.70;;
1977;SDS011;989;53.016;8.346;2022-08-19T10:16:42;10.60;;;2.50;;
1977;SDS011;989;53.016;8.346;2022-08-19T10:19:08;5.40;;;2.27;;
1977;SDS011;989;53.016;8.346;2022-08-19T10:21:35;5.50;;;2.90;;
1977;SDS011;989;53.016;8.346;2022-08-19T10:24:03;5.83;;;2.90;;
1977;SDS011;989;53.016;8.346;2022-08-19T10:26:33;6.67;;;2.20;;
1977;SDS011;989;53.016;8.346;2022-08-19T10:29:02;2.80;;;2.50;;
1977;SDS011;989;53.016;8.346;2022-08-19T10:31:30;3.93;;;2.10;;
1977;SDS011;989;53.016;8.346;2022-08-19T10:33:57;6.13;;;3.17;;
1977;SDS011;989;53.016;8.346;2022-08-19T10:36:27;6.40;;;2.00;;
1977;SDS011;989;53.016;8.346;2022-08-19T10:38:57;5.40;;;2.87;;
1977;SDS011;989;53.016;8.346;2022-08-19T10:41:30;4.90;;;2.70;;
1977;SDS011;989;53.016;8.346;2022-08-19T10:44:00;2.63;;;2.00;;
1977;SDS011;989;53.016;8.346;2022-08-19T10:46:31;12.00;;;3.30;;
1977;SDS011;989;53.016;8.346;2022-08-19T10:49:01;3.50;;;2.10;;
1977;SDS011;989;53.016;8.346;2022-08-19T10:51:29;6.83;;;2.77;;
1977;SDS011;989;53.016;8.346;2022-08-19T10:54:14;3.33;;;1.93;;
1977;SDS011;989;53.016;8.346;2022-08-19T10:56:40;3.50;;;2.10;;
1977;SDS011;989;53.016;8.346;2022-08-19T11:01:44;4.87;;;2.67;;
1977;SDS011;989;53.016;8.346;2022-08-19T11:04:11;2.50;;;1.67;;
1977;SDS011;989;53.016;8.346;2022-08-19T11:06:41;3.73;;;2.17;;
1977;SDS011;989;53.016;8.346;2022-08-19T11:09:12;2.80;;;2.17;;
1977;SDS011;989;53.016;8.346;2022-08-19T11:11:43;3.57;;;1.93;;
1977;SDS011;989;53.016;8.346;2022-08-19T11:14:10;4.90;;;2.73;;
1977;SDS011;989;53.016;8.346;2022-08-19T11:16:39;5.77;;;2.90;;
1977;SDS011;989;53.016;8.346;2022-08-19T11:19:07;5.37;;;2.17;;
1977;SDS011;989;53.016;8.346;2022-08-19T11:21:37;5.53;;;2.70;;
1977;SDS011;989;53.016;8.346;2022-08-19T11:24:10;2.13;;;1.83;;
1977;SDS011;989;53.016;8.346;2022-08-19T11:26:42;4.10;;;2.43;;
1977;SDS011;989;53.016;8.346;2022-08-19T11:29:09;4.17;;;2.00;;
1977;SDS011;989;53.016;8.346;2022-08-19T11:31:38;3.53;;;2.50;;
1977;SDS011;989;53.016;8.346;2022-08-19T11:34:08;3.80;;;2.50;;
1977;SDS011;989;53.016;8.346;2022-08-19T11:36:39;3.00;;;2.50;;
1977;SDS011;989;53.016;8.346;2022-08-19T11:39:08;3.37;;;2.37;;
1977;SDS011;989;53.016;8.346;2022-08-19T11:41:36;4.87;;;2.13;;
1977;SDS011;989;53.016;8.346;2022-08-19T11:44:01;3.77;;;2.40;;
1977;SDS011;989;53.016;8.346;2022-08-19T11:46:29;10.20;;;2.00;;
1977;SDS011;989;53.016;8.346;2022-08-19T11:48:59;3.00;;;2.47;;
1977;SDS011;989;53.016;8.346;2022-08-19T11:51:26;4.57;;;2.27;;
1977;SDS011;989;53.016;8.346;2022-08-19T11:53:53;4.50;;;2.27;;
1977;SDS011;989;53.016;8.346;2022-08-19T11:56:21;3.77;;;2.10;;
1977;SDS011;989;53.016;8.346;2022-08-19T11:58:48;3.20;;;2.60;;
1977;SDS011;989;53.016;8.346;2022-08-19T12:01:15;2.10;;;1.90;;
1977;SDS011;989;53.016;8.346;2022-08-19T12:03:43;4.27;;;2.13;;
1977;SDS011;989;53.016;8.346;2022-08-19T12:06:11;2.40;;;1.90;;
1977;SDS011;989;53.016;8.346;2022-08-19T12:08:41;2.97;;;2.23;;
1977;SDS011;989;53.016;8.346;2022-08-19T12:11:08;4.00;;;2.00;;
1977;SDS011;989;53.016;8.346;2022-08-19T12:13:35;4.77;;;2.00;;
1977;SDS011;989;53.016;8.346;2022-08-19T12:16:07;4.53;;;2.17;;
1977;SDS011;989;53.016;8.346;2022-08-19T12:18:37;3.20;;;2.03;;
1977;SDS011;989;53.016;8.346;2022-08-19T12:21:06;2.90;;;2.30;;
1977;SDS011;989;53.016;8.346;2022-08-19T12:23:33;18.57;;;2.50;;
1977;SDS011;989;53.016;8.346;2022-08-19T12:25:58;3.30;;;2.17;;
1977;SDS011;989;53.016;8.346;2022-08-19T12:28:24;6.60;;;2.63;;
1977;SDS011;989;53.016;8.346;2022-08-19T12:30:50;5.67;;;2.27;;
1977;SDS011;989;53.016;8.346;2022-08-19T12:33:17;2.40;;;2.17;;
1977;SDS011;989;53.016;8.346;2022-08-19T12:35:44;5.70;;;2.13;;
1977;SDS011;989;53.016;8.346;2022-08-19T12:38:12;4.00;;;2.20;;
1977;SDS011;989;53.016;8.346;2022-08-19T12:40:39;2.77;;;1.90;;
1977;SDS011;989;53.016;8.346;2022-08-19T12:43:06;15.53;;;2.50;;
1977;SDS011;989;53.016;8.346;2022-08-19T12:45:33;2.43;;;2.07;;
1977;SDS011;989;53.016;8.346;2022-08-19T12:47:59;4.73;;;2.27;;
1977;SDS011;989;53.016;8.346;2022-08-19T12:50:25;2.67;;;2.20;;
1977;SDS011;989;53.016;8.346;2022-08-19T12:52:50;2.10;;;1.80;;
1977;SDS011;989;53.016;8.346;2022-08-19T12:55:16;6.00;;;2.30;;
1977;SDS011;989;53.016;8.346;2022-08-19T12:57:44;3.20;;;2.20;;
1977;SDS011;989;53.016;8.346;2022-08-19T13:00:11;4.23;;;2.43;;
1977;SDS011;989;53.016;8.346;2022-08-19T13:02:41;5.43;;;2.50;;
1977;SDS011;989;53.016;8.346;2022-08-19T13:05:11;2.97;;;1.97;;
1977;SDS011;989;53.016;8.346;2022-08-19T13:07:40;4.00;;;2.43;;
1977;SDS011;989;53.016;8.346;2022-08-19T13:10:10;2.97;;;2.27;;
1977;SDS011;989;53.016;8.346;2022-08-19T13:12:40;4.63;;;2.27;;
1977;SDS011;989;53.016;8.346;2022-08-19T13:15:07;3.70;;;2.00;;
1977;SDS011;989;53.016;8.346;2022-08-19T13:17:34;3.87;;;2.30;;
1977;SDS011;989;53.016;8.346;2022-08-19T13:20:01;3.57;;;2.20;;
1977;SDS011;989;53.016;8.346;2022-08-19T13:22:28;2.50;;;2.10;;
1977;SDS011;989;53.016;8.346;2022-08-19T13:24:54;4.57;;;2.40;;
1977;SDS011;989;53.016;8.346;2022-08-19T13:27:20;4.50;;;2.37;;
1977;SDS011;989;53.016;8.346;2022-08-19T13:29:45;3.30;;;2.37;;
1977;SDS011;989;53.016;8.346;2022-08-19T13:32:29;4.43;;;2.63;;
1977;SDS011;989;53.016;8.346;2022-08-19T13:35:13;4.70;;;3.40;;
1977;SDS011;989;53.016;8.346;2022-08-19T13:37:41;3.70;;;2.63;;
1977;SDS011;989;53.016;8.346;2022-08-19T13:40:08;3.37;;;2.60;;
1977;SDS011;989;53.016;8.346;2022-08-19T13:42:48;4.33;;;2.60;;
1977;SDS011;989;53.016;8.346;2022-08-19T13:45:17;2.50;;;2.30;;
1977;SDS011;989;53.016;8.346;2022-08-19T13:47:47;4.23;;;2.30;;
1977;SDS011;989;53.016;8.346;2022-08-19T13:50:17;4.00;;;2.60;;
1977;SDS011;989;53.016;8.346;2022-08-19T13:52:46;2.40;;;2.20;;
1977;SDS011;989;53.016;8.346;2022-08-19T13:55:13;3.63;;;3.13;;
1977;SDS011;989;53.016;8.346;2022-08-19T13:57:40;3.47;;;2.90;;
1977;SDS011;989;53.016;8.346;2022-08-19T14:00:10;5.47;;;2.47;;
1977;SDS011;989;53.016;8.346;2022-08-19T14:03:08;4.93;;;2.80;;
1977;SDS011;989;53.016;8.346;2022-08-19T14:05:35;3.90;;;2.70;;
1977;SDS011;989;53.016;8.346;2022-08-19T14:08:01;4.10;;;2.90;;
1977;SDS011;989;53.016;8.346;2022-08-19T14:10:27;2.90;;;2.60;;
1977;SDS011;989;53.016;8.346;2022-08-19T14:12:56;3.80;;;2.67;;
1977;SDS011;989;53.016;8.346;2022-08-19T14:15:24;3.40;;;2.83;;
1977;SDS011;989;53.016;8.346;2022-08-19T14:17:52;5.27;;;2.80;;
1977;SDS011;989;53.016;8.346;2022-08-19T14:20:18;5.63;;;2.83;;
1977;SDS011;989;53.016;8.346;2022-08-19T14:22:45;2.20;;;2.00;;
1977;SDS011;989;53.016;8.346;2022-08-19T14:25:14;4.87;;;3.20;;
1977;SDS011;989;53.016;8.346;2022-08-19T14:27:43;5.23;;;2.73;;
1977;SDS011;989;53.016;8.346;2022-08-19T14:30:11;2.77;;;2.57;;
1977;SDS011;989;53.016;8.346;2022-08-19T14:32:40;3.00;;;2.63;;
1977;SDS011;989;53.016;8.346;2022-08-19T14:35:08;3.43;;;2.90;;
1977;SDS011;989;53.016;8.346;2022-08-19T14:37:37;5.00;;;3.00;;
1977;SDS011;989;53.016;8.346;2022-08-19T14:40:03;3.00;;;2.40;;
1977;SDS011;989;53.016;8.346;2022-08-19T14:42:30;4.50;;;3.13;;
1977;SDS011;989;53.016;8.346;2022-08-19T14:44:59;2.80;;;2.40;;
1977;SDS011;989;53.016;8.346;2022-08-19T14:47:25;3.37;;;2.50;;
1977;SDS011;989;53.016;8.346;2022-08-19T14:49:51;4.50;;;2.70;;
1977;SDS011;989;53.016;8.346;2022-08-19T14:52:18;3.37;;;2.40;;
1977;SDS011;989;53.016;8.346;2022-08-19T14:54:44;3.70;;;2.63;;
1977;SDS011;989;53.016;8.346;2022-08-19T14:57:13;3.20;;;2.53;;
1977;SDS011;989;53.016;8.346;2022-08-19T14:59:41;6.43;;;3.30;;
1977;SDS011;989;53.016;8.346;2022-08-19T15:02:07;3.17;;;2.70;;
1977;SDS011;989;53.016;8.346;2022-08-19T15:04:34;2.43;;;2.23;;
1977;SDS011;989;53.016;8.346;2022-08-19T15:06:59;3.70;;;2.37;;
1977;SDS011;989;53.016;8.346;2022-08-19T15:09:25;2.30;;;2.07;;
1977;SDS011;989;53.016;8.346;2022-08-19T15:11:51;4.57;;;2.80;;
1977;SDS011;989;53.016;8.346;2022-08-19T15:14:16;2.40;;;2.10;;
1977;SDS011;989;53.016;8.346;2022-08-19T15:16:42;3.87;;;2.40;;
1977;SDS011;989;53.016;8.346;2022-08-19T15:19:08;9.90;;;2.67;;
1977;SDS011;989;53.016;8.346;2022-08-19T15:21:34;3.27;;;2.50;;
1977;SDS011;989;53.016;8.346;2022-08-19T15:24:01;5.50;;;2.80;;
1977;SDS011;989;53.016;8.346;2022-08-19T15:26:27;3.77;;;2.73;;
1977;SDS011;989;53.016;8.346;2022-08-19T15:28:57;2.70;;;2.30;;
1977;SDS011;989;53.016;8.346;2022-08-19T15:31:27;8.93;;;2.60;;
1977;SDS011;989;53.016;8.346;2022-08-19T15:33:53;4.17;;;2.53;;
1977;SDS011;989;53.016;8.346;2022-08-19T15:36:22;3.67;;;2.80;;
1977;SDS011;989;53.016;8.346;2022-08-19T15:38:50;3.50;;;2.53;;